This is the latest recevied weather packets stored in our database for station/object PD2SKZ-12. If no packets are shown the sender has not sent any weather packets the latest 10 day(s).
| Time | Temp. | Humidity | Pressure | Rain* | Wind** | Luminosity | Snow |
|---|---|---|---|---|---|---|---|
| 1777395144 | 19.44° C | 30% | 1022.8 hPa | 0 mm | - | - | - |
| 1777393044 | 19.44° C | 31% | 1022.6 hPa | 0 mm | - | - | - |
| 1777392444 | 19.44° C | 32% | 1022.7 hPa | 0 mm | - | - | - |
| 1777390944 | 19.44° C | 34% | 1022.6 hPa | 0 mm | - | - | - |
| 1777388548 | 19.44° C | 34% | 1022.8 hPa | 0 mm | - | - | - |
| 1777385544 | 19.44° C | 33% | 1023 hPa | 0 mm | - | - | - |
| 1777385244 | 19.44° C | 32% | 1023.1 hPa | 0 mm | - | - | - |
| 1777384944 | 19.44° C | 32% | 1023.1 hPa | 0 mm | - | - | - |
| 1777384044 | 18.89° C | 33% | 1023.1 hPa | 0 mm | - | - | - |
| 1777383464 | 18.89° C | 32% | 1023.3 hPa | 0 mm | - | - | - |
| 1777382844 | 18.89° C | 32% | 1023.3 hPa | 0 mm | - | - | - |
| 1777382265 | 18.33° C | 32% | 1023.4 hPa | 0 mm | - | - | - |
| 1777381384 | 18.89° C | 33% | 1023.6 hPa | 0 mm | - | - | - |
| 1777381044 | 18.89° C | 32% | 1023.6 hPa | 0 mm | - | - | - |
| 1777376545 | 17.22° C | 43% | 1024.1 hPa | 0 mm | - | - | - |
| 1777375944 | 17.22° C | 43% | 1024.1 hPa | 0 mm | - | - | - |
| 1777375645 | 17.22° C | 43% | 1024.1 hPa | 0 mm | - | - | - |
| 1777367845 | 15° C | 52% | 1024.3 hPa | 0 mm | - | - | - |
| 1777367265 | 14.44° C | 53% | 1024.3 hPa | 0 mm | - | - | - |
| 1777366945 | 14.44° C | 54% | 1024.3 hPa | 0 mm | - | - | - |
| 1777365145 | 13.89° C | 57% | 1024.2 hPa | 0 mm | - | - | - |
| 1777364847 | 13.33° C | 56% | 1024.3 hPa | 0 mm | - | - | - |
| 1777363665 | 12.78° C | 59% | 1024.2 hPa | 0 mm | - | - | - |
| 1777363365 | 12.78° C | 59% | 1024.3 hPa | 0 mm | - | - | - |
| 1777362145 | 12.78° C | 60% | 1024.1 hPa | 0 mm | - | - | - |
* Rain latest hour (hover to see other rain measurements)
** Current wind speed in m/s (hover to see current wind gust speed)